createdAt,value
2022-10-20T00:02:42.705Z,9.93
2022-10-20T00:07:47.591Z,9.20
2022-10-20T00:12:50.418Z,8.48
2022-10-20T00:17:53.270Z,10.20
2022-10-20T00:22:57.689Z,12.63
2022-10-20T00:28:00.417Z,12.25
2022-10-20T00:33:04.252Z,10.95
2022-10-20T00:38:10.714Z,11.77
2022-10-20T00:43:14.157Z,11.50
2022-10-20T00:48:18.250Z,12.18
2022-10-20T00:53:27.728Z,11.85
2022-10-20T00:58:30.558Z,9.15
2022-10-20T01:03:41.011Z,11.93
2022-10-20T01:08:45.210Z,11.95
2022-10-20T01:13:53.761Z,9.63
2022-10-20T01:19:02.017Z,12.55
2022-10-20T01:24:17.582Z,11.95
2022-10-20T01:29:26.657Z,11.00
2022-10-20T01:34:30.975Z,11.48
2022-10-20T01:39:37.755Z,9.85
2022-10-20T01:44:42.317Z,7.28
2022-10-20T01:49:45.698Z,11.70
2022-10-20T01:54:48.385Z,12.43
2022-10-20T02:00:01.638Z,12.27
2022-10-20T02:05:12.347Z,11.17
2022-10-20T02:10:18.274Z,11.93
2022-10-20T02:15:24.596Z,11.93
2022-10-20T02:20:27.560Z,12.43
2022-10-20T02:25:30.909Z,8.45
2022-10-20T02:30:35.536Z,12.18
2022-10-20T02:35:38.551Z,10.05
2022-10-20T02:40:42.364Z,13.25
2022-10-20T02:45:46.358Z,9.98
2022-10-20T02:50:49.197Z,11.00
2022-10-20T02:55:52.171Z,10.73
2022-10-20T03:00:56.506Z,9.98
2022-10-20T03:05:59.269Z,11.43
2022-10-20T03:11:06.056Z,12.20
2022-10-20T03:16:12.206Z,10.15
2022-10-20T03:21:15.418Z,11.45
2022-10-20T03:26:21.974Z,9.05
2022-10-20T03:31:26.235Z,10.05
2022-10-20T03:36:28.985Z,11.63
2022-10-20T03:41:31.710Z,10.57
2022-10-20T03:46:35.914Z,10.57
2022-10-20T03:51:38.765Z,10.95
2022-10-20T03:56:41.589Z,10.35
2022-10-20T04:01:46.548Z,9.15
2022-10-20T04:06:49.244Z,10.52
2022-10-20T04:11:57.056Z,9.85
2022-10-20T04:17:01.426Z,10.98
2022-10-20T04:22:04.192Z,10.70
2022-10-20T04:27:07.200Z,9.70
2022-10-20T04:32:11.190Z,11.90
2022-10-20T04:37:14.038Z,10.70
2022-10-20T04:42:16.693Z,9.73
2022-10-20T04:47:20.900Z,11.18
2022-10-20T04:52:25.398Z,10.43
2022-10-20T04:57:28.824Z,10.37
2022-10-20T05:02:32.970Z,4.40
2022-10-20T05:07:35.950Z,10.88
2022-10-20T05:12:39.345Z,11.63
2022-10-20T05:17:44.316Z,10.67
2022-10-20T05:22:47.262Z,10.52
2022-10-20T05:27:50.091Z,10.90
2022-10-20T05:32:54.170Z,10.40
2022-10-20T05:37:57.226Z,11.15
2022-10-20T05:43:00.644Z,10.95
2022-10-20T05:48:04.889Z,11.97
2022-10-20T05:53:08.107Z,11.13
2022-10-20T05:58:10.700Z,7.73
2022-10-20T06:03:17.418Z,9.98
2022-10-20T06:08:21.641Z,10.75
2022-10-20T06:13:24.539Z,10.95
2022-10-20T06:18:29.939Z,10.55
2022-10-20T06:23:32.667Z,9.10
2022-10-20T06:28:36.253Z,10.40
2022-10-20T06:33:40.261Z,10.10
2022-10-20T06:38:44.256Z,9.98
2022-10-20T06:43:47.179Z,10.85
2022-10-20T06:48:54.975Z,10.25
2022-10-20T06:54:01.309Z,8.60
2022-10-20T06:59:04.580Z,7.90
2022-10-20T07:04:09.574Z,8.65
2022-10-20T07:09:14.548Z,9.00
2022-10-20T07:14:20.097Z,10.73
2022-10-20T07:19:24.818Z,7.05
2022-10-20T07:24:29.100Z,8.23
2022-10-20T07:34:35.961Z,9.52
2022-10-20T07:39:38.797Z,9.18
2022-10-20T07:44:41.434Z,7.63
2022-10-20T07:49:45.944Z,6.47
2022-10-20T07:54:48.664Z,8.40
2022-10-20T07:59:51.557Z,8.52
2022-10-20T08:04:55.890Z,8.23
2022-10-20T08:09:59.121Z,7.85
2022-10-20T08:15:07.535Z,7.03
2022-10-20T08:20:15.334Z,8.07
2022-10-20T08:25:18.681Z,7.72
2022-10-20T08:30:24.191Z,8.10
2022-10-20T08:35:29.199Z,7.70
2022-10-20T08:40:32.071Z,7.45
2022-10-20T08:45:38.350Z,7.15
2022-10-20T08:50:45.116Z,7.55
2022-10-20T08:55:48.578Z,7.38
2022-10-20T09:00:55.982Z,8.13
2022-10-20T09:06:04.195Z,7.63
2022-10-20T09:11:09.330Z,6.72
2022-10-20T09:16:22.118Z,7.10
2022-10-20T09:21:39.504Z,8.43
2022-10-20T09:26:58.149Z,6.90
2022-10-20T09:32:16.728Z,6.80
2022-10-20T09:37:26.515Z,6.03
2022-10-20T09:42:30.829Z,6.45
2022-10-20T09:47:34.815Z,5.80
2022-10-20T09:52:48.016Z,6.28
2022-10-20T09:57:51.222Z,6.53
2022-10-20T10:03:08.971Z,6.15
2022-10-20T10:08:16.254Z,5.97
2022-10-20T10:13:24.860Z,6.90
2022-10-20T10:18:28.370Z,5.80
2022-10-20T10:23:34.122Z,6.72
2022-10-20T10:28:38.248Z,5.45
2022-10-20T10:33:41.101Z,6.25
2022-10-20T10:38:45.400Z,5.95
2022-10-20T10:43:52.644Z,6.82
2022-10-20T10:49:18.240Z,4.90
2022-10-20T10:54:32.572Z,4.78
2022-10-20T10:59:37.048Z,5.78
2022-10-20T11:05:03.922Z,5.07
2022-10-20T11:10:11.074Z,5.15
2022-10-20T11:15:19.581Z,6.28
2022-10-20T11:20:33.221Z,5.57
2022-10-20T11:25:39.690Z,5.28
2022-10-20T11:30:45.262Z,5.38
2022-10-20T11:35:50.517Z,5.55
2022-10-20T11:41:00.113Z,4.60
2022-10-20T11:46:05.348Z,4.80
2022-10-20T11:51:15.880Z,4.95
2022-10-20T11:56:36.893Z,4.32
2022-10-20T12:01:45.198Z,5.00
2022-10-20T12:07:10.621Z,4.22
2022-10-20T12:12:16.334Z,5.10
2022-10-20T12:17:30.993Z,4.22
2022-10-20T12:22:42.202Z,5.03
2022-10-20T12:27:45.228Z,4.60
2022-10-20T12:32:54.923Z,4.40
2022-10-20T12:37:59.046Z,3.92
2022-10-20T12:43:02.024Z,4.05
2022-10-20T12:48:07.080Z,4.03
2022-10-20T12:53:11.540Z,4.47
2022-10-20T12:58:26.742Z,4.20
2022-10-20T13:03:38.625Z,4.30
2022-10-20T13:08:42.172Z,4.80
2022-10-20T13:13:50.142Z,4.45
2022-10-20T13:18:54.728Z,4.70
2022-10-20T13:24:03.863Z,4.45
2022-10-20T13:29:12.440Z,4.55
2022-10-20T13:34:19.450Z,4.82
2022-10-20T13:39:25.173Z,4.50
2022-10-20T13:44:31.966Z,4.50
2022-10-20T13:49:49.336Z,11.60
2022-10-20T13:54:55.462Z,4.90
2022-10-20T13:59:59.539Z,4.85
2022-10-20T14:05:05.568Z,5.18
2022-10-20T14:10:09.601Z,4.82
2022-10-20T14:15:15.047Z,5.60
2022-10-20T14:20:22.050Z,7.28
2022-10-20T14:25:31.604Z,5.07
2022-10-20T14:30:38.720Z,4.93
2022-10-20T14:35:46.557Z,5.22
2022-10-20T14:40:50.779Z,5.22
2022-10-20T14:45:54.589Z,5.60
2022-10-20T14:50:58.709Z,6.07
2022-10-20T14:56:02.779Z,6.38
2022-10-20T15:01:20.708Z,5.95
2022-10-20T15:06:24.832Z,6.63
2022-10-20T15:11:28.274Z,5.68
2022-10-20T15:16:35.834Z,5.75
2022-10-20T15:21:39.892Z,4.55
2022-10-20T15:26:42.499Z,5.25
2022-10-20T15:31:45.147Z,6.25
2022-10-20T15:36:51.050Z,5.57
2022-10-20T15:41:54.351Z,5.68
2022-10-20T15:46:57.071Z,5.37
2022-10-20T15:52:00.996Z,5.37
2022-10-20T15:57:03.663Z,7.22
2022-10-20T16:02:07.607Z,4.72
2022-10-20T16:07:11.614Z,5.47
2022-10-20T16:12:14.391Z,4.82
2022-10-20T16:17:17.166Z,5.67
2022-10-20T16:22:21.101Z,5.20
2022-10-20T16:27:24.005Z,5.43
2022-10-20T16:32:29.132Z,5.20
2022-10-20T16:37:35.978Z,4.65
2022-10-20T16:42:39.060Z,5.32
2022-10-20T16:47:41.749Z,5.60
2022-10-20T16:52:45.750Z,4.82
2022-10-20T16:57:48.327Z,5.40
2022-10-20T17:02:52.980Z,5.78
2022-10-20T17:07:57.365Z,5.13
2022-10-20T17:12:59.971Z,4.00
2022-10-20T17:18:02.595Z,5.20
2022-10-20T17:23:06.660Z,4.90
2022-10-20T17:28:09.241Z,5.28
2022-10-20T17:33:12.473Z,5.07
2022-10-20T17:38:16.665Z,6.50
2022-10-20T17:43:19.497Z,5.60
2022-10-20T17:48:22.106Z,5.87
2022-10-20T17:53:26.123Z,6.20
2022-10-20T17:58:28.942Z,4.85
2022-10-20T18:03:31.569Z,4.93
2022-10-20T18:08:35.592Z,5.72
2022-10-20T18:13:38.930Z,5.18
2022-10-20T18:18:42.748Z,5.35
2022-10-20T18:23:48.308Z,5.28
2022-10-20T18:28:51.129Z,5.38
2022-10-20T18:34:02.663Z,5.30
2022-10-20T18:39:11.262Z,5.10
2022-10-20T18:44:14.490Z,5.68
2022-10-20T18:49:19.686Z,5.57
2022-10-20T18:54:24.332Z,5.82
2022-10-20T18:59:27.234Z,6.18
2022-10-20T19:04:29.925Z,6.13
2022-10-20T19:09:34.057Z,6.43
2022-10-20T19:14:36.937Z,5.15
2022-10-20T19:19:41.887Z,5.55
2022-10-20T19:24:46.322Z,5.85
2022-10-20T19:29:49.650Z,5.50
2022-10-20T19:34:52.478Z,5.32
2022-10-20T19:40:00.673Z,5.15
2022-10-20T19:45:03.577Z,5.15
2022-10-20T19:50:06.790Z,5.25
2022-10-20T19:55:11.377Z,5.72
2022-10-20T20:00:14.243Z,5.30
2022-10-20T20:05:17.240Z,5.53
2022-10-20T20:10:22.219Z,6.37
2022-10-20T20:15:25.192Z,5.82
2022-10-20T20:20:28.577Z,5.57
2022-10-20T20:25:36.689Z,5.53
2022-10-20T20:30:43.404Z,5.70
2022-10-20T20:35:46.668Z,6.20
2022-10-20T20:40:51.440Z,6.43
2022-10-20T20:45:54.327Z,6.38
2022-10-20T20:50:58.721Z,5.55
2022-10-20T20:56:05.016Z,6.40
2022-10-20T21:01:09.453Z,6.05
2022-10-20T21:06:13.418Z,7.50
2022-10-20T21:11:18.923Z,13.70
2022-10-20T21:16:23.788Z,8.18
2022-10-20T21:21:28.070Z,8.07
2022-10-20T21:26:32.432Z,8.05
2022-10-20T21:31:36.138Z,8.52
2022-10-20T21:36:40.178Z,7.03
2022-10-20T21:46:50.355Z,7.15
2022-10-20T21:51:54.182Z,7.53
2022-10-20T21:56:57.287Z,7.28
2022-10-20T22:02:02.320Z,7.10
2022-10-20T22:07:05.494Z,6.45
2022-10-20T22:12:08.441Z,7.20
2022-10-20T22:17:14.490Z,7.00
2022-10-20T22:22:17.489Z,6.38
2022-10-20T22:27:41.488Z,7.73
2022-10-20T22:32:45.778Z,5.82
2022-10-20T22:37:48.739Z,5.97
2022-10-20T22:42:52.347Z,5.90
2022-10-20T22:47:56.773Z,6.27
2022-10-20T22:53:00.036Z,6.22
2022-10-20T22:58:03.510Z,6.38
2022-10-20T23:03:20.086Z,5.07
2022-10-20T23:08:23.982Z,3.40
2022-10-20T23:13:26.968Z,4.85
2022-10-20T23:18:31.449Z,4.93
2022-10-20T23:23:36.252Z,2.25
2022-10-20T23:28:39.979Z,6.60
2022-10-20T23:33:45.135Z,4.82
2022-10-20T23:38:48.380Z,3.88
2022-10-20T23:43:51.344Z,2.50
2022-10-20T23:48:56.105Z,3.97
2022-10-20T23:53:59.291Z,3.53
2022-10-20T23:59:02.724Z,3.78
